METAR Data
IDs: Format: Raw Decoded Include TAF

Data at: 1105 UTC 22 Oct 2018

PATK 221053Z AUTO 03005KT BKN075 OVC090 03/00 A2958 RMK AO2 SLP020 T00330000 TSNO $
PATK 220953Z AUTO 00000KT BKN070 OVC090 03/01 A2959 RMK AO2 SLP023 T00280006 TSNO $
PATK 220853Z AUTO 00000KT OVC085 03/01 A2957 RMK AO2 SLP017 T00330011 401110022 53015 TSNO $
PATK 220753Z AUTO 16004KT BKN085 OVC100 03/01 A2956 RMK AO2 SLP013 T00330006 TSNO $
PATK 220653Z AUTO 00000KT OVC095 03/01 A2954 RMK AO2 SLP006 T00330006 TSNO $
PATK 220553Z AUTO 00000KT FEW100 03/01 A2953 RMK AO2 SLP003 T00280006 10111 20022 51008 TSNO $
PATK 220453Z AUTO 00000KT BKN085 BKN120 04/01 A2952 RMK AO2 SLP001 T00390011 TSNO $
PATK 220353Z AUTO 00000KT BKN075 06/01 A2951 RMK AO2 SLP998 T00560011 TSNO $
PATK 220253Z AUTO 00000KT BKN080 07/02 A2950 RMK AO2 SLP994 T00720017 53009 TSNO $
PATK 220153Z AUTO 00000KT SCT070 OVC085 09/02 A2949 RMK AO2 SLP989 T00940017 TSNO $
PATK 220053Z 00000KT 10SM SCT070 BKN090 OVC110 11/01 A2948 RMK AO2 SLP988 T01060006 $
PATK 212353Z 01004KT 10SM SCT070 BKN085 11/01 A2947 RMK AO2 SLP984 T01110006 10111 20072 51006 $
PATK 212253Z VRB03KT 10SM FEW065 BKN090 OVC110 11/00 A2947 RMK AO2 SLP984 T01060000 $
PATK 212153Z 03003KT 10SM FEW075 OVC095 10/01 A2947 RMK AO2 SLP982 T01000006 $
PATK 212053Z 35003KT 10SM OVC075 09/00 A2946 RMK AO2 SLP978 T00940000 51013 $
PATK 211953Z 02005KT 10SM FEW075 OVC100 09/M01 A2945 RMK AO2 SLP976 T00891006 $
PATK 211853Z 00000KT 10SM BKN090 OVC110 08/M01 A2944 RMK AO2 SLP973 T00781006 $
PATK 211753Z 03004KT 10SM SCT080 BKN095 OVC110 07/M01 A2942 RMK AO2 SLP965 T00721006 10072 20050 53014 $
PATK 211653Z 35006KT 10SM FEW080 OVC100 07/M01 A2940 RMK AO2 SLP960 T00721011 $
PATK 211553Z AUTO 04004KT SCT095 BKN110 07/M01 A2939 RMK AO2 SLP956 T00671006 TSNO $
PATK 211453Z AUTO 03005KT OVC095 06/00 A2938 RMK AO2 SLP953 T00610000 58011 TSNO $
PATK 211353Z AUTO 01003KT BKN095 06/M01 A2939 RMK AO2 SLP958 T00561006 TSNO $
PATK 211253Z AUTO 03005KT BKN090 07/M01 A2941 RMK AO2 SLP962 T00671011 TSNO $
PATK 211153Z AUTO 36005KT OVC090 07/M01 A2941 RMK AO2 SLP963 70005 T00721011 10072 20056 56023 TSNO $
PATK 211053Z AUTO VRB03KT OVC090 07/M01 A2943 RMK AO2 SLP969 T00721011 TSNO $
PATK 210953Z AUTO 00000KT OVC100 07/M01 A2944 RMK AO2 SLP971 T00671006 TSNO $
PATK 210853Z AUTO 02006KT OVC110 07/00 A2948 RMK AO2 SLP988 T00670000 400670033 56032 TSNO $
PATK 210753Z AUTO 03005KT OVC110 07/01 A2952 RMK AO2 SLP001 T00670006 TSNO $
PATK 210653Z AUTO 04011KT OVC080 06/01 A2953 RMK AO2 SLP005 T00610006 TSNO $
PATK 210553Z AUTO 01007KT OVC095 06/01 A2958 RMK AO2 SLP020 T00560011 10067 20039 58023 TSNO $
PATK 210453Z AUTO 03007KT CLR 05/02 A2960 RMK AO2 SLP029 T00500017 TSNO $
PATK 210353Z AUTO 02006KT CLR 05/02 A2963 RMK AO2 SLP037 T00500022 TSNO $
PATK 210253Z AUTO 03004KT CLR 04/03 A2964 RMK AO2 SLP043 T00390028 58010 TSNO $
PATK 210153Z AUTO 01003KT SCT075 06/04 A2966 RMK AO2 SLP048 T00610044 TSNO $
PATK 210053Z 03005KT 10SM FEW039 BKN055 07/04 A2967 RMK AO2 SLP052 T00670044 $
PATK 202353Z 03005KT 10SM BKN042 OVC055 06/04 A2968 RMK AO2 SLP053 60000 T00610044 10061 20044 50003 $